KTUL/TUL METAR and TAF weather

Enter ICAO airport designator
Station Type Date Time Source
KTUL METAR 2021/09/24 01:53 UTC NOAA

KTUL 240153Z 13006KT 10SM CLR 21/07 A3003 RMK AO2 SLP165 T02060072


Station Type Date Time Source
KTUL Decoded METAR 2021/09/24 01:53 UTC NOAA

TULSA INTERNATIONAL AIRPORT, OK, United States (KTUL) 36-12N 95-53W 207M
Sep 23, 2021 - 09:53 PM EDT / 2021.09.24 0153 UTC
Wind: from the SE (130 degrees) at 7 MPH (6 KT):0
Visibility: 10 mile(s):0
Sky conditions: clear
Temperature: 69.1 F (20.6 C)
Dew Point: 45.0 F (7.2 C)
Relative Humidity: 41%
Pressure (altimeter): 30.03 in. Hg (1016 hPa)
ob: KTUL 240153Z 13006KT 10SM CLR 21/07 A3003 RMK AO2 SLP165 T02060072
cycle: 2

Station Type Date Time Source
KTUL TAF 2021/09/23 18:24 UTC NOAA

TAF KTUL 231721Z 2318/2418 21007KT P6SM SKC
FM240000 18006KT P6SM SKC
FM241500 19011G21KT P6SM SCT250

Example: see airport list